Tiempo atmosférico en la estación meteorológica de Esterri d?Àneu, Lleida (940 m.)

Fecha
DESCASC
Temp. máxima en grados centígrados (hora)
DESCASC
Temp. mínima en grados centígrados (hora)
DESCASC
Temp. media en grados centígrados
DESCASC
Racha de viento máxima en m/sg (hora)
DESCASC
Velocidad máxima media en intervalos de 10 minutos(hora)
DESCASC
Precipitaciones diarias en mm
DESCASC
Precipitaciones de 00:00 a 06:00 en mm
DESCASC
Precipitaciones de 06:00 a 12:00 en mm
DESCASC
Precipitaciones de 12:00 a 18:00 en mm
DESCASC
Precipitaciones de 18:00 a 24:00 en mm
DESCASC

Gráficas

Temp. máximas Temp. mínimas Temp. medias Precipitaciones Rachas de viento máximas Velocidades máximas media en intervalos de 10 minutos

Datos horarios

Fecha y hora oficial Temperatura (ºC) Velocidad del viento (km/h) Dirección del viento Racha (km/h) Dirección de racha Precipitación (mm) Presión (hPa) Tendencia (hPa) Humedad (%)
2017-12-14 23:00:00 0.6 0 Calma 3 Sur 0 -- -- --
2017-12-14 22:00:00 0.2 0 Calma 3 Sur 0 -- -- --
2017-12-14 21:00:00 -0.4 0 Calma 2 Sudeste 0 -- -- --
2017-12-14 20:00:00 0.3 0 Calma 3 Sur 0 -- -- --
2017-12-14 19:00:00 1.5 0 Calma 3 Sur 0 -- -- --
2017-12-14 18:00:00 2.8 0 Calma 5 Noroeste 0 -- -- --
2017-12-14 17:00:00 4.8 0 Calma 4 Noroeste 0 -- -- --
2017-12-14 16:00:00 7.9 3 Norte 5 Noroeste 0 -- -- --
2017-12-14 15:00:00 9.4 0 Calma 5 Noroeste 0 -- -- --
2017-12-14 14:00:00 7.3 3 Sur 8 Sur 0 -- -- --
2017-12-14 13:00:00 5.5 0 Calma 8 Sur 0 -- -- --
2017-12-14 12:00:00 3.6 0 Calma 4 Sudoeste 0 -- -- --
2017-12-14 11:00:00 2 0 Calma 3 Nordeste 0 -- -- --
2017-12-14 10:00:00 1 0 Calma 4 Noroeste 0 -- -- --
2017-12-14 09:00:00 0.4 0 Calma 4 Sudeste 0 -- -- --
2017-12-14 08:00:00 0.4 2 Noroeste 3 Sudeste 0 -- -- --
2017-12-14 07:00:00 0.1 0 Calma 3 Sudeste 0 -- -- --
2017-12-14 06:00:00 0.1 0 Calma 2 Sudeste 0 -- -- --
2017-12-14 05:00:00 0 0 Calma 6 Sudeste 0 -- -- --
2017-12-14 04:00:00 0.1 0 Calma 9 Norte 0 -- -- --
2017-12-14 03:00:00 0.1 0 Calma 4 Este 0 -- -- --
2017-12-14 02:00:00 0.5 0 Calma 3 Sudeste 0 -- -- --
2017-12-14 01:00:00 0.5 0 Calma 4 Sur 0 -- -- --
2017-12-14 00:00:00 0.6 0 Calma 3 Oeste 0 -- -- --
2017-12-13 23:00:00 0.8 0 Calma 2 Sudeste 0 -- -- --
2017-12-13 22:00:00 1 0 Calma 5 Nordeste 0 -- -- --
2017-12-13 21:00:00 1.4 0 Calma 4 Este 0 -- -- --
2017-12-13 20:00:00 2 0 Calma 4 Este 0 -- -- --
2017-12-13 19:00:00 2.2 0 Calma 3 Oeste 0 -- -- --
2017-12-13 18:00:00 2.7 0 Calma 4 Sudeste 0 -- -- --
2017-12-13 17:00:00 3.5 0 Calma 4 Noroeste 0 -- -- --
2017-12-13 16:00:00 4.1 0 Calma 4 Sur 0 -- -- --
2017-12-13 15:00:00 3.8 0 Calma 4 Sudoeste 0 -- -- --
2017-12-13 14:00:00 2.7 0 Calma 6 Sur 0 -- -- --
2017-12-13 13:00:00 1.3 0 Calma 4 Sudeste 0 -- -- --
2017-12-13 12:00:00 -0.6 2 Sur 6 Sur 0 -- -- --
2017-12-13 11:00:00 -3.3 2 Sur 5 Sudoeste 0 -- -- --
2017-12-13 10:00:00 -5.2 0 Calma 4 Sur 0 -- -- --
2017-12-13 09:00:00 -7.3 0 Calma 4 Sur 0 -- -- --
2017-12-13 08:00:00 -7.8 0 Calma 3 Sur 0 -- -- --
2017-12-13 07:00:00 -7.6 0 Calma 4 Sur 0 -- -- --
2017-12-13 06:00:00 -7.1 0 Calma 3 Sur 0 -- -- --
2017-12-13 05:00:00 -6.9 0 Calma 2 Sudoeste 0 -- -- --
2017-12-13 04:00:00 -6.6 0 Calma 2 Sur 0 -- -- --
2017-12-13 03:00:00 -6.2 0 Calma 3 Sudoeste 0 -- -- --
2017-12-13 02:00:00 -5.6 0 Calma 4 Oeste 0 -- -- --
2017-12-13 01:00:00 -5.3 0 Calma 2 Sudoeste 0 -- -- --
2017-12-13 00:00:00 -4.7 0 Calma 4 Sudoeste 0 -- -- --
2017-12-12 23:00:00 -3.9 0 Calma 4 Norte 0 -- -- --
2017-12-12 22:00:00 -3 2 Sur 5 Sur 0 -- -- --
2017-12-12 21:00:00 -1.7 0 Calma 6 Norte 0 -- -- --
2017-12-12 20:00:00 0.7 3 Nordeste 17 Nordeste 0 -- -- --
2017-12-12 19:00:00 1.4 9 Nordeste 18 Norte 0 -- -- --
2017-12-12 18:00:00 2.2 6 Nordeste 15 Nordeste 0 -- -- --
2017-12-12 17:00:00 3.1 5 Norte 15 Noroeste 0 -- -- --
2017-12-12 16:00:00 4.4 6 Norte 27 Norte 0 -- -- --
2017-12-12 15:00:00 5.8 9 Noroeste 24 Noroeste 0 -- -- --
2017-12-12 14:00:00 5.8 11 Noroeste 24 Noroeste 0 -- -- --
2017-12-12 13:00:00 5.9 9 Norte 23 Norte 0 -- -- --
2017-12-12 12:00:00 5.1 11 Noroeste 23 Norte 0 -- -- --
2017-12-12 11:00:00 4 12 Norte 22 Norte 0 -- -- --
2017-12-12 10:00:00 -0.3 0 Calma 4 Sudeste 0 -- -- --
2017-12-12 09:00:00 -0.6 2 Norte 5 Noroeste 0 -- -- --
2017-12-12 08:00:00 -0.2 0 Calma 5 Norte 0 -- -- --
2017-12-12 07:00:00 -0.2 0 Calma 3 Sudoeste 0 -- -- --
2017-12-12 06:00:00 0 0 Calma 3 Sudeste 0 -- -- --
2017-12-12 05:00:00 0 0 Calma 2 Noroeste 0 -- -- --
2017-12-12 04:00:00 -0.2 0 Calma 4 Norte 0 -- -- --
2017-12-12 03:00:00 -0.2 0 Calma 3 Sudeste 0 -- -- --
2017-12-12 02:00:00 0 0 Calma 2 Sur 0 -- -- --
2017-12-12 01:00:00 0 0 Calma 4 Sur 0 -- -- --
2017-12-12 00:00:00 0.3 0 Calma 2 Sudeste 0 -- -- --
2017-12-11 23:00:00 0.7 0 Calma 3 Norte 0 -- -- --
2017-12-11 22:00:00 1.2 3 Norte 6 Norte 0 -- -- --
2017-12-11 21:00:00 2.1 0 Calma 4 Noroeste 0 -- -- --
2017-12-11 20:00:00 2.6 0 Calma 4 Sudoeste 0 -- -- --
2017-12-11 19:00:00 3.8 0 Calma 4 Sudeste 0 -- -- --
2017-12-11 18:00:00 4.2 0 Calma 9 Sudeste 0 -- -- --
2017-12-11 17:00:00 5 5 Sudeste 11 Este 0 -- -- --
2017-12-11 16:00:00 6.1 4 Sudeste 15 Sudoeste 0 -- -- --
2017-12-11 15:00:00 6.2 2 Este 10 Sur 0.2 -- -- --
2017-12-11 14:00:00 6.4 4 Sur 24 Sur 0 -- -- --
2017-12-11 13:00:00 6.9 9 Sur 23 Sudoeste 0 -- -- --
2017-12-11 12:00:00 7.1 6 Sur 20 Sudoeste 0.2 -- -- --
2017-12-11 11:00:00 6.6 0 Calma 4 Sudeste 0.6 -- -- --
2017-12-11 10:00:00 6 0 Calma 5 Norte 1.4 -- -- --
2017-12-11 09:00:00 5.9 0 Calma 6 Sudeste 1.6 -- -- --
2017-12-11 08:00:00 6.3 4 Sudeste 12 Sur 1.4 -- -- --
2017-12-11 07:00:00 6.4 5 Sur 14 Sur 1.2 -- -- --
2017-12-11 06:00:00 6.6 4 Sur 27 Sur 1.4 -- -- --
2017-12-11 05:00:00 7.9 12 Sur 44 Sudeste 1.8 -- -- --
2017-12-11 04:00:00 8.1 5 Sudoeste 48 Sudeste 0.6 -- -- --
2017-12-11 03:00:00 8.8 20 Sur 40 Sudeste 0.6 -- -- --
2017-12-11 02:00:00 5.8 4 Norte 11 Noroeste 0.4 -- -- --
2017-12-11 01:00:00 3.6 4 Sudoeste 14 Nordeste 0.4 -- -- --
2017-12-11 00:00:00 1.9 2 Sur 8 Noroeste 0.4 -- -- --
2017-12-10 23:00:00 1.6 0 Calma 5 Sudeste 0.2 -- -- --
2017-12-10 22:00:00 1.6 0 Calma 10 Noroeste 0.2 -- -- --
2017-12-10 21:00:00 1.2 0 Calma 6 Sudeste 0 -- -- --
2017-12-10 20:00:00 1.2 0 Calma 5 Sudeste 0.4 -- -- --
2017-12-10 19:00:00 1.3 0 Calma 6 Sudeste 0.2 -- -- --
2017-12-10 18:00:00 1.5 0 Calma 4 Norte 0.2 -- -- --
2017-12-10 17:00:00 1.5 0 Calma 4 Sudeste 0.4 -- -- --
2017-12-10 16:00:00 1.7 0 Calma 6 Este 0.2 -- -- --
2017-12-10 15:00:00 1.7 0 Calma 2 Sudeste 0.6 -- -- --
2017-12-10 14:00:00 1.7 0 Calma 2 Sur 0.8 -- -- --
2017-12-10 13:00:00 1.4 0 Calma 2 Sudoeste 1 -- -- --
2017-12-10 12:00:00 1.3 0 Calma 3 Noroeste 0.8 -- -- --
2017-12-10 11:00:00 0.8 0 Calma 2 Sudeste 0 -- -- --
2017-12-10 10:00:00 0.3 0 Calma 2 Sudoeste 0.2 -- -- --
2017-12-10 09:00:00 -0.1 0 Calma 0 Calma 0 -- -- --
2017-12-10 08:00:00 0.2 0 Calma 0 Calma 0 -- -- --
2017-12-10 07:00:00 0.2 0 Calma 3 Sudeste 0 -- -- --
2017-12-10 06:00:00 0.2 0 Calma 2 Sudoeste 0 -- -- --
2017-12-10 05:00:00 0.4 0 Calma 2 Norte 0 -- -- --
2017-12-10 04:00:00 0.5 0 Calma 0 Calma 0.2 -- -- --
2017-12-10 03:00:00 0.4 0 Calma 2 Oeste 0 -- -- --
2017-12-10 02:00:00 0.5 0 Calma -- -- 0 -- -- --
2017-12-10 01:00:00 0.5 0 Calma 0 Calma 0 -- -- --
2017-12-10 00:00:00 0.6 0 Calma -- -- 0 -- -- --
2017-12-09 23:00:00 1 0 Calma 3 Nordeste 0.2 -- -- --
2017-12-09 22:00:00 2.2 3 Nordeste 11 Norte 0 -- -- --
2017-12-09 21:00:00 2.5 2 Nordeste 4 Sur 0 -- -- --
2017-12-09 20:00:00 2.3 0 Calma 4 Este 0 -- -- --
2017-12-09 19:00:00 2.3 2 Oeste 4 Noroeste 0 -- -- --
2017-12-09 18:00:00 3.5 0 Calma 4 Noroeste 0 -- -- --
2017-12-09 17:00:00 5.6 0 Calma 4 Norte 0 -- -- --
2017-12-09 16:00:00 7.8 3 Sur 9 Sudoeste 0 -- -- --
2017-12-09 15:00:00 8.8 2 Sudoeste 16 Noroeste 0 -- -- --
2017-12-09 14:00:00 7.6 5 Norte 16 Noroeste 0 -- -- --
2017-12-09 13:00:00 6.1 7 Norte 22 Norte 0 -- -- --
2017-12-09 12:00:00 4.8 6 Norte 23 Norte 0 -- -- --
2017-12-09 11:00:00 4.2 9 Noroeste 31 Noroeste 0 -- -- --
2017-12-09 10:00:00 3.7 6 Norte 34 Norte 0 -- -- --
2017-12-09 09:00:00 3.2 11 Norte 39 Noroeste 0 -- -- --
2017-12-09 08:00:00 3.5 16 Norte 44 Noroeste 0 -- -- --
2017-12-09 07:00:00 3.8 12 Norte 31 Norte 0 -- -- --
2017-12-09 06:00:00 3.6 8 Norte 26 Noroeste 0 -- -- --
2017-12-09 05:00:00 4.3 10 Norte 29 Este 0 -- -- --
2017-12-09 04:00:00 4.2 6 Norte 27 Norte 0 -- -- --
2017-12-09 03:00:00 4.4 6 Norte 26 Norte 0 -- -- --
2017-12-09 02:00:00 4.4 5 Norte 15 Norte 0 -- -- --
2017-12-09 01:00:00 4.6 8 Norte 23 Noroeste 0 -- -- --
2017-12-09 00:00:00 4.8 6 Norte 29 Norte 0 -- -- --
2017-12-08 23:00:00 4.9 9 Norte 22 Norte 0 -- -- --
2017-12-08 22:00:00 5.3 9 Norte 24 Norte 0 -- -- --
2017-12-08 21:00:00 4.8 5 Norte 15 Norte 0 -- -- --
2017-12-08 20:00:00 5.4 5 Norte 21 Noroeste 0 -- -- --
2017-12-08 19:00:00 5 3 Norte 18 Noroeste 0 -- -- --
2017-12-08 18:00:00 4.2 3 Norte 5 Norte 0 -- -- --
2017-12-08 17:00:00 7.2 0 Calma 14 Noroeste 0 -- -- --
2017-12-08 16:00:00 9.1 4 Norte 16 Oeste 0 -- -- --
2017-12-08 15:00:00 8.9 2 Sur 9 Sudoeste 0 -- -- --
2017-12-08 14:00:00 5.4 0 Calma 5 Norte 0 -- -- --
2017-12-08 13:00:00 3.9 0 Calma 4 Sur 0 -- -- --
2017-12-08 12:00:00 2.3 0 Calma 4 Sur 0.2 -- -- --
2017-12-08 11:00:00 0.7 0 Calma 4 Sudoeste 0.4 -- -- --
2017-12-08 10:00:00 -0.4 0 Calma 4 Oeste 0 -- -- --
2017-12-08 09:00:00 -1.2 0 Calma 3 Sudeste 0 -- -- --
2017-12-08 08:00:00 -1.8 0 Calma 4 Sudoeste 0 -- -- --
2017-12-08 07:00:00 -2.8 0 Calma 4 Sudeste 0 -- -- --
2017-12-08 06:00:00 -3 0 Calma 3 Nordeste 0 -- -- --
2017-12-08 05:00:00 -3.5 0 Calma 5 Sudeste 0 -- -- --
2017-12-08 04:00:00 -3.2 0 Calma 4 Sur 0 -- -- --
2017-12-08 03:00:00 -3.6 0 Calma 9 Sur 0 -- -- --
2017-12-08 02:00:00 -3.5 0 Calma 6 Norte 0 -- -- --
2017-12-08 01:00:00 -4.1 0 Calma 3 Sur 0 -- -- --
2017-12-08 00:00:00 -3.6 0 Calma 2 Sur 0 -- -- --
2017-12-07 23:00:00 -2.8 0 Calma 3 Sudoeste 0 -- -- --
2017-12-07 22:00:00 -2.2 0 Calma 5 Noroeste 0 -- -- --
2017-12-07 21:00:00 -2 0 Calma 3 Norte 0 -- -- --
2017-12-07 20:00:00 -1.1 0 Calma 4 Norte 0 -- -- --
2017-12-07 19:00:00 0 0 Calma 5 Norte 0 -- -- --
2017-12-07 18:00:00 2.4 0 Calma 2 Sur 0 -- -- --
2017-12-07 17:00:00 5.2 0 Calma 2 Norte 0 -- -- --
2017-12-07 16:00:00 6.8 0 Calma 4 Sur 0 -- -- --
2017-12-07 15:00:00 6.7 0 Calma 4 Sur 0 -- -- --
2017-12-07 14:00:00 5.2 0 Calma 5 Sudoeste 0 -- -- --
2017-12-07 13:00:00 3.2 0 Calma 4 Sur 0 -- -- --
2017-12-07 12:00:00 0.6 0 Calma 4 Sur 0 -- -- --
2017-12-07 11:00:00 -2.5 0 Calma 3 Sur 0 -- -- --
2017-12-07 10:00:00 -5.3 0 Calma 2 Sur 0 -- -- --
2017-12-07 09:00:00 -7.2 0 Calma 3 Sur 0 -- -- --
2017-12-07 08:00:00 -7.5 0 Calma 2 Sudeste 0 -- -- --
2017-12-07 07:00:00 -7.4 0 Calma 2 Sudeste 0 -- -- --
2017-12-07 06:00:00 -7 0 Calma 3 Sur 0 -- -- --
2017-12-07 05:00:00 -6.2 0 Calma 2 Oeste 0 -- -- --
2017-12-07 04:00:00 -5.6 0 Calma 2 Sudeste 0 -- -- --
2017-12-07 03:00:00 -5.1 0 Calma 0 Calma 0 -- -- --
2017-12-07 02:00:00 -4.8 0 Calma 0 Calma 0 -- -- --
2017-12-07 01:00:00 -4.7 0 Calma 2 Sur 0 -- -- --
2017-12-07 00:00:00 -4.5 0 Calma 2 Sur 0 -- -- --
2017-12-06 23:00:00 -4 0 Calma 0 Calma 0 -- -- --
2017-12-06 22:00:00 -3.7 0 Calma 2 Sur 0 -- -- --
2017-12-06 21:00:00 -3.2 0 Calma 2 Sur 0 -- -- --
2017-12-06 20:00:00 -2 0 Calma 2 Sur 0 -- -- --
2017-12-06 19:00:00 -1 0 Calma 2 Noroeste 0 -- -- --
2017-12-06 18:00:00 0.5 0 Calma 2 Sur 0 -- -- --
2017-12-06 17:00:00 3.4 0 Calma 2 Sur 0 -- -- --
2017-12-06 16:00:00 7.7 0 Calma 6 Noroeste 0 -- -- --
2017-12-06 15:00:00 10.6 3 Sur 6 Sur 0 -- -- --
2017-12-06 14:00:00 8.6 2 Oeste 6 Sur 0 -- -- --
2017-12-06 13:00:00 4.9 2 Sur 5 Sudoeste 0 -- -- --
2017-12-06 12:00:00 0.6 2 Sudoeste 4 Sudeste 0 -- -- --
2017-12-06 11:00:00 -3.5 0 Calma 2 Sur 0 -- -- --
2017-12-06 10:00:00 -7.4 0 Calma 0 Calma 0 -- -- --
2017-12-06 09:00:00 -8 0 Calma 2 Sur 0 -- -- --
2017-12-06 08:00:00 -7.8 0 Calma 0 Calma 0 -- -- --
2017-12-06 07:00:00 -7.8 0 Calma 2 Sudoeste 0 -- -- --
2017-12-06 06:00:00 -7.3 0 Calma 0 Calma 0 -- -- --
2017-12-06 05:00:00 -7 0 Calma 2 Sur 0 -- -- --
2017-12-06 04:00:00 -6.7 0 Calma 2 Sur 0 -- -- --
2017-12-06 03:00:00 -6.4 0 Calma 0 Calma 0 -- -- --
2017-12-06 02:00:00 -5.9 0 Calma 0 Calma 0 -- -- --
2017-12-06 01:00:00 -5.3 0 Calma 2 Sur 0 -- -- --
2017-12-06 00:00:00 -4.9 0 Calma 2 Sur 0 -- -- --
2017-12-05 23:00:00 -4.3 0 Calma 2 Norte 0 -- -- --
2017-12-05 22:00:00 -3.6 0 Calma 2 Sur 0 -- -- --
2017-12-05 21:00:00 -2.8 0 Calma 2 Sur 0 -- -- --
2017-12-05 20:00:00 -1.9 0 Calma 2 Sur 0 -- -- --
2017-12-05 19:00:00 -0.6 0 Calma 2 Sur 0 -- -- --
2017-12-05 18:00:00 1.3 0 Calma 3 Norte 0 -- -- --
2017-12-05 17:00:00 4 0 Calma 2 Sudoeste 0 -- -- --
2017-12-05 16:00:00 9.1 0 Calma 6 Sudeste 0 -- -- --
2017-12-05 15:00:00 10.9 2 Sur 10 Sur 0 -- -- --
2017-12-05 14:00:00 9.6 0 Calma 5 Sudoeste 0 -- -- --
2017-12-05 13:00:00 5.4 2 Sur 5 Sur 0 -- -- --
2017-12-05 12:00:00 1.1 0 Calma 4 Sur 0 -- -- --
2017-12-05 11:00:00 -2.6 2 Sur 3 Sur 0 -- -- --
2017-12-05 10:00:00 -6.9 0 Calma 2 Sudoeste 0 -- -- --
2017-12-05 09:00:00 -7.5 0 Calma 2 Sur 0 -- -- --
2017-12-05 08:00:00 -7.4 0 Calma 2 Sudoeste 0 -- -- --
2017-12-05 07:00:00 -7.4 0 Calma 2 Sudeste 0 -- -- --
2017-12-05 06:00:00 -7 0 Calma 2 Sudoeste 0 -- -- --
2017-12-05 05:00:00 -6.6 0 Calma 2 Sudoeste 0 -- -- --
2017-12-05 04:00:00 -6.1 0 Calma 3 Sudoeste 0 -- -- --
2017-12-05 03:00:00 -5.7 0 Calma 2 Norte 0 -- -- --
2017-12-05 02:00:00 -5.3 0 Calma 2 Noroeste 0 -- -- --
2017-12-05 01:00:00 -5 0 Calma 3 Sur 0 -- -- --
2017-12-05 00:00:00 -4.1 0 Calma 4 Oeste 0 -- -- --
2017-12-04 23:00:00 -3.5 0 Calma 4 Sur 0 -- -- --
2017-12-04 22:00:00 -2.5 0 Calma 4 Sur 0 -- -- --
2017-12-04 21:00:00 -1.5 0 Calma 4 Noroeste 0 -- -- --
2017-12-04 20:00:00 0 2 Sur 5 Sudeste 0 -- -- --
2017-12-04 19:00:00 2 0 Calma 6 Noroeste 0 -- -- --
2017-12-04 18:00:00 4.7 0 Calma 8 Norte 0 -- -- --
2017-12-04 17:00:00 8 3 Nordeste 14 Nordeste 0 -- -- --
2017-12-04 16:00:00 9.9 4 Nordeste 17 Norte 0 -- -- --
2017-12-04 15:00:00 11.5 7 Noroeste 22 Noroeste 0 -- -- --
2017-12-04 14:00:00 9.3 3 Sudoeste 6 Sur 0 -- -- --
2017-12-04 13:00:00 5 3 Sudeste 7 Sur 0 -- -- --
2017-12-04 12:00:00 1.5 2 Sur 5 Sudeste 0 -- -- --
2017-12-04 11:00:00 -1.6 0 Calma 4 Sur 0 -- -- --
2017-12-04 10:00:00 -5.3 0 Calma 5 Sudeste 0 -- -- --
2017-12-04 09:00:00 -5.5 0 Calma 4 Este 0 -- -- --
2017-12-04 08:00:00 -5.1 0 Calma 3 Noroeste 0 -- -- --
2017-12-04 07:00:00 -4.3 0 Calma 3 Noroeste 0 -- -- --
2017-12-04 06:00:00 -3 0 Calma 5 Norte 0 -- -- --
2017-12-04 05:00:00 -2.3 2 Nordeste 8 Nordeste 0 -- -- --
2017-12-04 04:00:00 -0.7 3 Norte 12 Nordeste 0 -- -- --
2017-12-04 03:00:00 1.1 4 Nordeste 17 Nordeste 0 -- -- --
2017-12-04 02:00:00 1.4 8 Este 21 Nordeste 0 -- -- --
2017-12-04 01:00:00 1.3 3 Noroeste 27 Nordeste 0 -- -- --
2017-12-04 00:00:00 1.8 5 Nordeste 27 Norte 0 -- -- --
2017-12-03 23:00:00 2.5 15 Norte 31 Norte 0 -- -- --
2017-12-03 22:00:00 2.2 12 Norte 26 Norte 0 -- -- --
2017-12-03 21:00:00 2.2 10 Norte 21 Norte 0 -- -- --
2017-12-03 20:00:00 2.2 7 Norte 24 Noroeste 0 -- -- --
2017-12-03 19:00:00 2.7 12 Norte 36 Norte 0 -- -- --
2017-12-03 18:00:00 2.7 11 Norte 35 Norte 0 -- -- --
2017-12-03 17:00:00 2.7 15 Norte 33 Noroeste 0 -- -- --
2017-12-03 16:00:00 3.3 9 Norte 29 Norte 0.2 -- -- --
2017-12-03 15:00:00 4.4 11 Norte 31 Norte 0.4 -- -- --
2017-12-03 14:00:00 -- -- -- -- -- -- -- -- --
2017-12-03 13:00:00 -- -- -- -- -- -- -- -- --
2017-12-03 12:00:00 -- -- -- -- -- -- -- -- --
2017-12-03 11:00:00 -- -- -- -- -- -- -- -- --
2017-12-03 10:00:00 -- -- -- -- -- -- -- -- --
2017-12-03 09:00:00 -- -- -- -- -- -- -- -- --
2017-12-03 08:00:00 -- -- -- -- -- -- -- -- --
2017-12-03 07:00:00 -- -- -- -- -- -- -- -- --
2017-12-03 06:00:00 -- -- -- -- -- -- -- -- --
2017-12-03 05:00:00 -- -- -- -- -- -- -- -- --
2017-12-03 04:00:00 -- -- -- -- -- -- -- -- --
2017-12-03 03:00:00 -- -- -- -- -- -- -- -- --
2017-12-03 02:00:00 -- -- -- -- -- -- -- -- --
2017-12-03 01:00:00 -- -- -- -- -- -- -- -- --
2017-12-03 00:00:00 -- -- -- -- -- -- -- -- --
2017-12-02 23:00:00 -- -- -- -- -- -- -- -- --
2017-12-02 22:00:00 -- -- -- -- -- -- -- -- --
2017-12-02 21:00:00 -- -- -- -- -- -- -- -- --
2017-12-02 20:00:00 -- -- -- -- -- -- -- -- --
2017-12-02 19:00:00 -- -- -- -- -- -- -- -- --
2017-12-02 18:00:00 -- -- -- -- -- -- -- -- --
2017-12-02 17:00:00 -- -- -- -- -- -- -- -- --
2017-12-02 16:00:00 -- -- -- -- -- -- -- -- --
2017-12-02 15:00:00 -- -- -- -- -- -- -- -- --
2017-12-02 14:00:00 -- -- -- -- -- -- -- -- --
2017-12-02 13:00:00 -- -- -- -- -- -- -- -- --
2017-12-02 12:00:00 -- -- -- -- -- -- -- -- --
2017-12-02 11:00:00 -- -- -- -- -- -- -- -- --
2017-12-02 10:00:00 -- -- -- -- -- -- -- -- --
2017-12-02 09:00:00 -- -- -- -- -- -- -- -- --
2017-12-02 08:00:00 -- -- -- -- -- -- -- -- --
2017-12-02 07:00:00 -- -- -- -- -- -- -- -- --
2017-12-02 06:00:00 -- -- -- -- -- -- -- -- --
2017-12-02 05:00:00 -- -- -- -- -- -- -- -- --
2017-12-02 04:00:00 -- -- -- -- -- -- -- -- --
2017-12-02 03:00:00 -- -- -- -- -- -- -- -- --
2017-12-02 02:00:00 -- -- -- -- -- -- -- -- --
2017-12-02 01:00:00 -- -- -- -- -- -- -- -- --
2017-12-02 00:00:00 -- -- -- -- -- -- -- -- --
2017-12-01 23:00:00 -- -- -- -- -- -- -- -- --
2017-12-01 22:00:00 -- -- -- -- -- -- -- -- --
2017-12-01 21:00:00 -- -- -- -- -- -- -- -- --
2017-12-01 20:00:00 -- -- -- -- -- -- -- -- --
2017-12-01 19:00:00 -- -- -- -- -- -- -- -- --
2017-12-01 18:00:00 -- -- -- -- -- -- -- -- --
2017-12-01 17:00:00 -- -- -- -- -- -- -- -- --
2017-12-01 16:00:00 -- -- -- -- -- -- -- -- --
2017-12-01 15:00:00 -- -- -- -- -- -- -- -- --
2017-12-01 14:00:00 -- -- -- -- -- -- -- -- --
2017-12-01 13:00:00 -- -- -- -- -- -- -- -- --
2017-12-01 12:00:00 -- -- -- -- -- -- -- -- --
2017-12-01 11:00:00 -- -- -- -- -- -- -- -- --
2017-12-01 10:00:00 -- -- -- -- -- -- -- -- --
2017-12-01 09:00:00 -- -- -- -- -- -- -- -- --
2017-12-01 08:00:00 -- -- -- -- -- -- -- -- --
2017-12-01 07:00:00 -- -- -- -- -- -- -- -- --
2017-12-01 06:00:00 -- -- -- -- -- -- -- -- --
2017-12-01 05:00:00 -- -- -- -- -- -- -- -- --
2017-12-01 04:00:00 -- -- -- -- -- -- -- -- --
2017-12-01 03:00:00 -- -- -- -- -- -- -- -- --
2017-12-01 02:00:00 -- -- -- -- -- -- -- -- --
2017-12-01 01:00:00 -- -- -- -- -- -- -- -- --
2017-12-01 00:00:00 -- -- -- -- -- -- -- -- --
2017-11-30 23:00:00 -- -- -- -- -- -- -- -- --
2017-11-30 22:00:00 -- -- -- -- -- -- -- -- --
2017-11-30 21:00:00 -- -- -- -- -- -- -- -- --
2017-11-30 20:00:00 -- -- -- -- -- -- -- -- --
2017-11-30 19:00:00 -- -- -- -- -- -- -- -- --
2017-11-30 18:00:00 -- -- -- -- -- -- -- -- --
2017-11-30 17:00:00 -- -- -- -- -- -- -- -- --
2017-11-30 16:00:00 -- -- -- -- -- -- -- -- --
2017-11-30 15:00:00 -- -- -- -- -- -- -- -- --
2017-11-30 14:00:00 -- -- -- -- -- -- -- -- --
2017-11-30 13:00:00 -- -- -- -- -- -- -- -- --
2017-11-30 12:00:00 -- -- -- -- -- -- -- -- --
2017-11-30 11:00:00 -- -- -- -- -- -- -- -- --
2017-11-30 10:00:00 -- -- -- -- -- -- -- -- --
2017-11-30 09:00:00 -- -- -- -- -- -- -- -- --
2017-11-30 08:00:00 -- -- -- -- -- -- -- -- --
2017-11-30 07:00:00 -- -- -- -- -- -- -- -- --
2017-11-30 06:00:00 -- -- -- -- -- -- -- -- --
2017-11-30 05:00:00 -- -- -- -- -- -- -- -- --
2017-11-30 04:00:00 -- -- -- -- -- -- -- -- --
2017-11-30 03:00:00 -- -- -- -- -- -- -- -- --
2017-11-30 02:00:00 -- -- -- -- -- -- -- -- --
2017-11-30 01:00:00 -- -- -- -- -- -- -- -- --
2017-11-30 00:00:00 -- -- -- -- -- -- -- -- --
2017-11-29 23:00:00 -- -- -- -- -- -- -- -- --
2017-11-29 22:00:00 -- -- -- -- -- -- -- -- --
2017-11-29 21:00:00 -- -- -- -- -- -- -- -- --
2017-11-29 20:00:00 -- -- -- -- -- -- -- -- --
2017-11-29 19:00:00 -- -- -- -- -- -- -- -- --
2017-11-29 18:00:00 -- -- -- -- -- -- -- -- --
2017-11-29 17:00:00 -- -- -- -- -- -- -- -- --
2017-11-29 16:00:00 -- -- -- -- -- -- -- -- --
2017-11-29 15:00:00 -- -- -- -- -- -- -- -- --
2017-11-29 14:00:00 -- -- -- -- -- -- -- -- --
2017-11-29 13:00:00 -- -- -- -- -- -- -- -- --
2017-11-29 12:00:00 -- -- -- -- -- -- -- -- --
2017-11-29 11:00:00 -- -- -- -- -- -- -- -- --
2017-11-29 10:00:00 -- -- -- -- -- -- -- -- --
2017-11-29 09:00:00 -- -- -- -- -- -- -- -- --
2017-11-29 08:00:00 -- -- -- -- -- -- -- -- --
2017-11-29 07:00:00 -- -- -- -- -- -- -- -- --
2017-11-29 06:00:00 -- -- -- -- -- -- -- -- --
2017-11-29 05:00:00 -- -- -- -- -- -- -- -- --
2017-11-29 04:00:00 -- -- -- -- -- -- -- -- --
2017-11-29 03:00:00 -- -- -- -- -- -- -- -- --
2017-11-29 02:00:00 -- -- -- -- -- -- -- -- --
2017-11-29 01:00:00 -- -- -- -- -- -- -- -- --
2017-11-29 00:00:00 -- -- -- -- -- -- -- -- --
2017-11-28 23:00:00 -- -- -- -- -- -- -- -- --
2017-11-28 22:00:00 -- -- -- -- -- -- -- -- --
2017-11-28 21:00:00 -- -- -- -- -- -- -- -- --
2017-11-28 20:00:00 -- -- -- -- -- -- -- -- --
2017-11-28 19:00:00 -- -- -- -- -- -- -- -- --
2017-11-28 18:00:00 -- -- -- -- -- -- -- -- --
2017-11-28 17:00:00 -- -- -- -- -- -- -- -- --
2017-11-28 16:00:00 -- -- -- -- -- -- -- -- --
2017-11-28 15:00:00 -- -- -- -- -- -- -- -- --
2017-11-28 14:00:00 -- -- -- -- -- -- -- -- --
2017-11-28 13:00:00 -- -- -- -- -- -- -- -- --
2017-11-28 12:00:00 -- -- -- -- -- -- -- -- --
2017-11-28 11:00:00 -- -- -- -- -- -- -- -- --
2017-11-28 10:00:00 -- -- -- -- -- -- -- -- --
2017-11-28 09:00:00 -- -- -- -- -- -- -- -- --
2017-11-28 08:00:00 -- -- -- -- -- -- -- -- --
2017-11-28 07:00:00 -- -- -- -- -- -- -- -- --
2017-11-28 06:00:00 -- -- -- -- -- -- -- -- --
2017-11-28 05:00:00 -- -- -- -- -- -- -- -- --
2017-11-28 04:00:00 -- -- -- -- -- -- -- -- --
2017-11-28 03:00:00 -- -- -- -- -- -- -- -- --
2017-11-28 02:00:00 -- -- -- -- -- -- -- -- --
2017-11-28 01:00:00 -- -- -- -- -- -- -- -- --
2017-11-28 00:00:00 -- -- -- -- -- -- -- -- --
2017-11-27 23:00:00 -- -- -- -- -- -- -- -- --
2017-11-27 22:00:00 -- -- -- -- -- -- -- -- --
2017-11-27 21:00:00 -- -- -- -- -- -- -- -- --
2017-11-27 20:00:00 -- -- -- -- -- -- -- -- --
2017-11-27 19:00:00 -- -- -- -- -- -- -- -- --
2017-11-27 18:00:00 -- -- -- -- -- -- -- -- --
2017-11-27 17:00:00 -- -- -- -- -- -- -- -- --
2017-11-27 16:00:00 -- -- -- -- -- -- -- -- --
2017-11-27 15:00:00 -- -- -- -- -- -- -- -- --
2017-11-27 14:00:00 -- -- -- -- -- -- -- -- --
2017-11-27 13:00:00 -- -- -- -- -- -- -- -- --
2017-11-27 12:00:00 -- -- -- -- -- -- -- -- --
2017-11-27 11:00:00 -- -- -- -- -- -- -- -- --
2017-11-27 10:00:00 -- -- -- -- -- -- -- -- --
2017-11-27 09:00:00 -- -- -- -- -- -- -- -- --
2017-11-27 08:00:00 -- -- -- -- -- -- -- -- --
2017-11-27 07:00:00 -- -- -- -- -- -- -- -- --
2017-11-27 06:00:00 -- -- -- -- -- -- -- -- --
2017-11-27 05:00:00 -- -- -- -- -- -- -- -- --
2017-11-27 04:00:00 -- -- -- -- -- -- -- -- --
2017-11-27 03:00:00 -- -- -- -- -- -- -- -- --
2017-11-27 02:00:00 -- -- -- -- -- -- -- -- --
2017-11-27 01:00:00 -- -- -- -- -- -- -- -- --
2017-11-27 00:00:00 -- -- -- -- -- -- -- -- --
2017-11-26 23:00:00 -- -- -- -- -- -- -- -- --
2017-11-26 22:00:00 -- -- -- -- -- -- -- -- --
2017-11-26 21:00:00 -- -- -- -- -- -- -- -- --
2017-11-26 20:00:00 -- -- -- -- -- -- -- -- --
2017-11-26 19:00:00 -- -- -- -- -- -- -- -- --
2017-11-26 18:00:00 -- -- -- -- -- -- -- -- --
2017-11-26 17:00:00 -- -- -- -- -- -- -- -- --
2017-11-26 16:00:00 -- -- -- -- -- -- -- -- --
2017-11-26 15:00:00 -- -- -- -- -- -- -- -- --
2017-11-26 14:00:00 -- -- -- -- -- -- -- -- --
2017-11-26 13:00:00 -- -- -- -- -- -- -- -- --
2017-11-26 12:00:00 -- -- -- -- -- -- -- -- --
2017-11-26 11:00:00 -- -- -- -- -- -- -- -- --
2017-11-26 10:00:00 -- -- -- -- -- -- -- -- --
2017-11-26 09:00:00 -- -- -- -- -- -- -- -- --
2017-11-26 08:00:00 -- -- -- -- -- -- -- -- --
2017-11-26 07:00:00 -- -- -- -- -- -- -- -- --
2017-11-26 06:00:00 -- -- -- -- -- -- -- -- --
2017-11-26 05:00:00 -- -- -- -- -- -- -- -- --
2017-11-26 04:00:00 -- -- -- -- -- -- -- -- --
2017-11-26 03:00:00 -- -- -- -- -- -- -- -- --
2017-11-26 02:00:00 -- -- -- -- -- -- -- -- --
2017-11-26 01:00:00 -- -- -- -- -- -- -- -- --
2017-11-26 00:00:00 -- -- -- -- -- -- -- -- --
2017-11-25 23:00:00 -- -- -- -- -- -- -- -- --
2017-11-25 22:00:00 -- -- -- -- -- -- -- -- --
2017-11-25 21:00:00 -- -- -- -- -- -- -- -- --
2017-11-25 20:00:00 -- -- -- -- -- -- -- -- --
2017-11-25 19:00:00 -- -- -- -- -- -- -- -- --
2017-11-25 18:00:00 -- -- -- -- -- -- -- -- --
2017-11-25 17:00:00 -- -- -- -- -- -- -- -- --
2017-11-25 16:00:00 -- -- -- -- -- -- -- -- --
2017-11-25 15:00:00 -- -- -- -- -- -- -- -- --
2017-11-25 14:00:00 -- -- -- -- -- -- -- -- --
2017-11-25 13:00:00 -- -- -- -- -- -- -- -- --
2017-11-25 12:00:00 -- -- -- -- -- -- -- -- --
2017-11-25 11:00:00 -- -- -- -- -- -- -- -- --
2017-11-25 10:00:00 -- -- -- -- -- -- -- -- --
2017-11-25 09:00:00 -- -- -- -- -- -- -- -- --
2017-11-25 08:00:00 -- -- -- -- -- -- -- -- --
2017-11-25 07:00:00 -- -- -- -- -- -- -- -- --
2017-11-25 06:00:00 -- -- -- -- -- -- -- -- --
2017-11-25 05:00:00 -- -- -- -- -- -- -- -- --
2017-11-25 04:00:00 -- -- -- -- -- -- -- -- --
2017-11-25 03:00:00 -- -- -- -- -- -- -- -- --
2017-11-25 02:00:00 -- -- -- -- -- -- -- -- --
2017-11-25 01:00:00 -- -- -- -- -- -- -- -- --
2017-11-25 00:00:00 -- -- -- -- -- -- -- -- --
2017-11-24 23:00:00 -- -- -- -- -- -- -- -- --
2017-11-24 22:00:00 -- -- -- -- -- -- -- -- --
2017-11-24 21:00:00 -- -- -- -- -- -- -- -- --
2017-11-24 20:00:00 -- -- -- -- -- -- -- -- --
2017-11-24 19:00:00 -- -- -- -- -- -- -- -- --
2017-11-24 18:00:00 -- -- -- -- -- -- -- -- --
2017-11-24 17:00:00 -- -- -- -- -- -- -- -- --
2017-11-24 16:00:00 -- -- -- -- -- -- -- -- --
2017-11-24 15:00:00 -- -- -- -- -- -- -- -- --
2017-11-24 14:00:00 -- -- -- -- -- -- -- -- --
2017-11-24 13:00:00 -- -- -- -- -- -- -- -- --
2017-11-24 12:00:00 -- -- -- -- -- -- -- -- --
2017-11-24 11:00:00 -- -- -- -- -- -- -- -- --
2017-11-24 10:00:00 -- -- -- -- -- -- -- -- --
2017-11-24 09:00:00 -- -- -- -- -- -- -- -- --
2017-11-24 08:00:00 -- -- -- -- -- -- -- -- --
2017-11-24 07:00:00 -- -- -- -- -- -- -- -- --
2017-11-24 06:00:00 -- -- -- -- -- -- -- -- --
2017-11-24 05:00:00 -- -- -- -- -- -- -- -- --
2017-11-24 04:00:00 -- -- -- -- -- -- -- -- --
2017-11-24 03:00:00 -- -- -- -- -- -- -- -- --
2017-11-24 02:00:00 -- -- -- -- -- -- -- -- --
2017-11-24 01:00:00 -- -- -- -- -- -- -- -- --
2017-11-24 00:00:00 -- -- -- -- -- -- -- -- --
2017-11-23 23:00:00 -- -- -- -- -- -- -- -- --
2017-11-23 22:00:00 -- -- -- -- -- -- -- -- --
2017-11-23 21:00:00 -- -- -- -- -- -- -- -- --
2017-11-23 20:00:00 -- -- -- -- -- -- -- -- --
2017-11-23 19:00:00 -- -- -- -- -- -- -- -- --
2017-11-23 18:00:00 -- -- -- -- -- -- -- -- --
2017-11-23 17:00:00 -- -- -- -- -- -- -- -- --
2017-11-23 16:00:00 -- -- -- -- -- -- -- -- --
2017-11-23 15:00:00 -- -- -- -- -- -- -- -- --
2017-11-23 14:00:00 -- -- -- -- -- -- -- -- --
2017-11-23 13:00:00 -- -- -- -- -- -- -- -- --
2017-11-23 12:00:00 -- -- -- -- -- -- -- -- --
2017-11-23 11:00:00 -- -- -- -- -- -- -- -- --
2017-11-23 10:00:00 -- -- -- -- -- -- -- -- --
2017-11-23 09:00:00 -- -- -- -- -- -- -- -- --
2017-11-23 08:00:00 -- -- -- -- -- -- -- -- --
2017-11-23 07:00:00 -- -- -- -- -- -- -- -- --
2017-11-23 06:00:00 -- -- -- -- -- -- -- -- --
2017-11-23 05:00:00 -- -- -- -- -- -- -- -- --
2017-11-23 04:00:00 -- -- -- -- -- -- -- -- --
2017-11-23 03:00:00 -- -- -- -- -- -- -- -- --
2017-11-23 02:00:00 -- -- -- -- -- -- -- -- --
2017-11-23 01:00:00 -- -- -- -- -- -- -- -- --
2017-11-23 00:00:00 -- -- -- -- -- -- -- -- --
2017-11-22 23:00:00 -- -- -- -- -- -- -- -- --
2017-11-22 22:00:00 -- -- -- -- -- -- -- -- --
2017-11-22 21:00:00 -- -- -- -- -- -- -- -- --
2017-11-22 20:00:00 -- -- -- -- -- -- -- -- --
2017-11-22 19:00:00 -- -- -- -- -- -- -- -- --
2017-11-22 18:00:00 -- -- -- -- -- -- -- -- --
2017-11-22 17:00:00 -- -- -- -- -- -- -- -- --
2017-11-22 16:00:00 -- -- -- -- -- -- -- -- --
2017-11-22 15:00:00 -- -- -- -- -- -- -- -- --
2017-11-22 14:00:00 -- -- -- -- -- -- -- -- --
2017-11-22 13:00:00 -- -- -- -- -- -- -- -- --
2017-11-22 12:00:00 -- -- -- -- -- -- -- -- --
2017-11-22 11:00:00 -- -- -- -- -- -- -- -- --
2017-11-22 10:00:00 -- -- -- -- -- -- -- -- --
2017-11-22 09:00:00 -- -- -- -- -- -- -- -- --
2017-11-22 08:00:00 -- -- -- -- -- -- -- -- --
2017-11-22 07:00:00 -- -- -- -- -- -- -- -- --
2017-11-22 06:00:00 -- -- -- -- -- -- -- -- --
2017-11-22 05:00:00 -- -- -- -- -- -- -- -- --
2017-11-22 04:00:00 -- -- -- -- -- -- -- -- --
2017-11-22 03:00:00 -- -- -- -- -- -- -- -- --
2017-11-22 02:00:00 -- -- -- -- -- -- -- -- --
2017-11-22 01:00:00 -- -- -- -- -- -- -- -- --
2017-11-22 00:00:00 -- -- -- -- -- -- -- -- --
2017-11-21 23:00:00 -- -- -- -- -- -- -- -- --
2017-11-21 22:00:00 -- -- -- -- -- -- -- -- --
2017-11-21 21:00:00 -- -- -- -- -- -- -- -- --
2017-11-21 20:00:00 -- -- -- -- -- -- -- -- --
2017-11-21 19:00:00 -- -- -- -- -- -- -- -- --
2017-11-21 18:00:00 -- -- -- -- -- -- -- -- --
2017-11-21 17:00:00 -- -- -- -- -- -- -- -- --
2017-11-21 16:00:00 -- -- -- -- -- -- -- -- --
2017-11-21 15:00:00 -- -- -- -- -- -- -- -- --
2017-11-21 14:00:00 -- -- -- -- -- -- -- -- --
2017-11-21 13:00:00 -- -- -- -- -- -- -- -- --
2017-11-21 12:00:00 -- -- -- -- -- -- -- -- --
2017-11-21 11:00:00 -- -- -- -- -- -- -- -- --
2017-11-21 10:00:00 -- -- -- -- -- -- -- -- --
2017-11-21 09:00:00 -- -- -- -- -- -- -- -- --
2017-11-21 08:00:00 -- -- -- -- -- -- -- -- --
2017-11-21 07:00:00 -- -- -- -- -- -- -- -- --
2017-11-21 06:00:00 -- -- -- -- -- -- -- -- --
2017-11-21 05:00:00 -- -- -- -- -- -- -- -- --
2017-11-21 04:00:00 -- -- -- -- -- -- -- -- --
2017-11-21 03:00:00 -- -- -- -- -- -- -- -- --
2017-11-21 02:00:00 -- -- -- -- -- -- -- -- --
2017-11-21 01:00:00 -- -- -- -- -- -- -- -- --
2017-11-21 00:00:00 -- -- -- -- -- -- -- -- --
2017-11-20 23:00:00 -- -- -- -- -- -- -- -- --
2017-11-20 22:00:00 -- -- -- -- -- -- -- -- --
2017-11-20 21:00:00 -- -- -- -- -- -- -- -- --
2017-11-20 20:00:00 -- -- -- -- -- -- -- -- --
2017-11-20 19:00:00 -- -- -- -- -- -- -- -- --
2017-11-20 18:00:00 -- -- -- -- -- -- -- -- --
2017-11-20 17:00:00 -- -- -- -- -- -- -- -- --
2017-11-20 16:00:00 -- -- -- -- -- -- -- -- --
2017-11-20 15:00:00 -- -- -- -- -- -- -- -- --
2017-11-20 14:00:00 -- -- -- -- -- -- -- -- --
2017-11-20 13:00:00 -- -- -- -- -- -- -- -- --
2017-11-20 12:00:00 -- -- -- -- -- -- -- -- --
2017-11-20 11:00:00 -- -- -- -- -- -- -- -- --
2017-11-20 10:00:00 -- -- -- -- -- -- -- -- --
2017-11-20 09:00:00 -- -- -- -- -- -- -- -- --
2017-11-20 08:00:00 -- -- -- -- -- -- -- -- --
2017-11-20 07:00:00 -- -- -- -- -- -- -- -- --
2017-11-20 06:00:00 -- -- -- -- -- -- -- -- --
2017-11-20 05:00:00 -- -- -- -- -- -- -- -- --
2017-11-20 04:00:00 -- -- -- -- -- -- -- -- --
2017-11-20 03:00:00 -- -- -- -- -- -- -- -- --
2017-11-20 02:00:00 -- -- -- -- -- -- -- -- --
2017-11-20 01:00:00 -- -- -- -- -- -- -- -- --
2017-11-20 00:00:00 -- -- -- -- -- -- -- -- --
2017-11-19 23:00:00 -- -- -- -- -- -- -- -- --
2017-11-19 22:00:00 -- -- -- -- -- -- -- -- --
2017-11-19 21:00:00 -- -- -- -- -- -- -- -- --
2017-11-19 20:00:00 -- -- -- -- -- -- -- -- --
2017-11-19 19:00:00 -- -- -- -- -- -- -- -- --
2017-11-19 18:00:00 -- -- -- -- -- -- -- -- --
2017-11-19 17:00:00 -- -- -- -- -- -- -- -- --
2017-11-19 16:00:00 -- -- -- -- -- -- -- -- --
2017-11-19 15:00:00 -- -- -- -- -- -- -- -- --
2017-11-19 14:00:00 -- -- -- -- -- -- -- -- --
2017-11-19 13:00:00 -- -- -- -- -- -- -- -- --
2017-11-19 12:00:00 -- -- -- -- -- -- -- -- --
2017-11-19 11:00:00 -- -- -- -- -- -- -- -- --
2017-11-19 10:00:00 -- -- -- -- -- -- -- -- --
2017-11-19 09:00:00 -- -- -- -- -- -- -- -- --
2017-11-19 08:00:00 -- -- -- -- -- -- -- -- --
2017-11-19 07:00:00 -- -- -- -- -- -- -- -- --
2017-11-19 06:00:00 -- -- -- -- -- -- -- -- --
2017-11-19 05:00:00 -- -- -- -- -- -- -- -- --
2017-11-19 04:00:00 -- -- -- -- -- -- -- -- --
2017-11-19 03:00:00 -- -- -- -- -- -- -- -- --
2017-11-19 02:00:00 -- -- -- -- -- -- -- -- --
2017-11-19 01:00:00 -- -- -- -- -- -- -- -- --
2017-11-19 00:00:00 -- -- -- -- -- -- -- -- --
2017-11-18 23:00:00 -- -- -- -- -- -- -- -- --
2017-11-18 22:00:00 -- -- -- -- -- -- -- -- --
2017-11-18 21:00:00 -- -- -- -- -- -- -- -- --
2017-11-18 20:00:00 -- -- -- -- -- -- -- -- --
2017-11-18 19:00:00 -- -- -- -- -- -- -- -- --
2017-11-18 18:00:00 -- -- -- -- -- -- -- -- --
2017-11-18 17:00:00 -- -- -- -- -- -- -- -- --
2017-11-18 16:00:00 -- -- -- -- -- -- -- -- --
2017-11-18 15:00:00 -- -- -- -- -- -- -- -- --
2017-11-18 14:00:00 -- -- -- -- -- -- -- -- --
2017-11-18 13:00:00 -- -- -- -- -- -- -- -- --
2017-11-18 12:00:00 -- -- -- -- -- -- -- -- --
2017-11-18 11:00:00 -- -- -- -- -- -- -- -- --
2017-11-18 10:00:00 -- -- -- -- -- -- -- -- --
2017-11-18 09:00:00 -- -- -- -- -- -- -- -- --
2017-11-18 08:00:00 -- -- -- -- -- -- -- -- --
2017-11-18 07:00:00 -- -- -- -- -- -- -- -- --
2017-11-18 06:00:00 -- -- -- -- -- -- -- -- --
2017-11-18 05:00:00 -- -- -- -- -- -- -- -- --
2017-11-18 04:00:00 -- -- -- -- -- -- -- -- --
2017-11-18 03:00:00 -- -- -- -- -- -- -- -- --
2017-11-18 02:00:00 -- -- -- -- -- -- -- -- --
2017-11-18 01:00:00 -- -- -- -- -- -- -- -- --
2017-11-18 00:00:00 -- -- -- -- -- -- -- -- --
2017-11-17 23:00:00 -- -- -- -- -- -- -- -- --
2017-11-17 22:00:00 -- -- -- -- -- -- -- -- --
2017-11-17 21:00:00 -- -- -- -- -- -- -- -- --
2017-11-17 20:00:00 -- -- -- -- -- -- -- -- --
2017-11-17 19:00:00 -- -- -- -- -- -- -- -- --
2017-11-17 18:00:00 -- -- -- -- -- -- -- -- --
2017-11-17 17:00:00 -- -- -- -- -- -- -- -- --
2017-11-17 16:00:00 -- -- -- -- -- -- -- -- --
2017-11-17 15:00:00 -- -- -- -- -- -- -- -- --
2017-11-17 14:00:00 -- -- -- -- -- -- -- -- --
2017-11-17 13:00:00 -- -- -- -- -- -- -- -- --
2017-11-17 12:00:00 -- -- -- -- -- -- -- -- --
2017-11-17 11:00:00 -- -- -- -- -- -- -- -- --
2017-11-17 10:00:00 -- -- -- -- -- -- -- -- --
2017-11-17 09:00:00 -- -- -- -- -- -- -- -- --
2017-11-17 08:00:00 -- -- -- -- -- -- -- -- --
2017-11-17 07:00:00 -- -- -- -- -- -- -- -- --
2017-11-17 06:00:00 -- -- -- -- -- -- -- -- --
2017-11-17 05:00:00 -- -- -- -- -- -- -- -- --
2017-11-17 04:00:00 -- -- -- -- -- -- -- -- --
2017-11-17 03:00:00 -- -- -- -- -- -- -- -- --
2017-11-17 02:00:00 -- -- -- -- -- -- -- -- --
2017-11-17 01:00:00 -- -- -- -- -- -- -- -- --
2017-11-17 00:00:00 -- -- -- -- -- -- -- -- --
2017-11-16 23:00:00 -- -- -- -- -- -- -- -- --
2017-11-16 22:00:00 -- -- -- -- -- -- -- -- --
2017-11-16 21:00:00 -- -- -- -- -- -- -- -- --
2017-11-16 20:00:00 -- -- -- -- -- -- -- -- --
2017-11-16 19:00:00 -- -- -- -- -- -- -- -- --
2017-11-16 18:00:00 -- -- -- -- -- -- -- -- --
2017-11-16 17:00:00 -- -- -- -- -- -- -- -- --
2017-11-16 16:00:00 -- -- -- -- -- -- -- -- --
2017-11-16 15:00:00 -- -- -- -- -- -- -- -- --
2017-11-16 14:00:00 -- -- -- -- -- -- -- -- --
2017-11-16 13:00:00 -- -- -- -- -- -- -- -- --
2017-11-16 12:00:00 -- -- -- -- -- -- -- -- --
2017-11-16 11:00:00 -- -- -- -- -- -- -- -- --
2017-11-16 10:00:00 -- -- -- -- -- -- -- -- --
2017-11-16 09:00:00 -- -- -- -- -- -- -- -- --
2017-11-16 08:00:00 -- -- -- -- -- -- -- -- --
2017-11-16 07:00:00 -- -- -- -- -- -- -- -- --
2017-11-16 06:00:00 -- -- -- -- -- -- -- -- --
2017-11-16 05:00:00 -- -- -- -- -- -- -- -- --
2017-11-16 04:00:00 -- -- -- -- -- -- -- -- --
2017-11-16 03:00:00 -- -- -- -- -- -- -- -- --
2017-11-16 02:00:00 -- -- -- -- -- -- -- -- --
2017-11-16 01:00:00 -- -- -- -- -- -- -- -- --
2017-11-16 00:00:00 -- -- -- -- -- -- -- -- --
2017-11-15 23:00:00 -- -- -- -- -- -- -- -- --
2017-11-15 22:00:00 -- -- -- -- -- -- -- -- --
2017-11-15 21:00:00 -- -- -- -- -- -- -- -- --
2017-11-15 20:00:00 -- -- -- -- -- -- -- -- --
2017-11-15 19:00:00 -- -- -- -- -- -- -- -- --
2017-11-15 18:00:00 -- -- -- -- -- -- -- -- --
2017-11-15 17:00:00 -- -- -- -- -- -- -- -- --
2017-11-15 16:00:00 -- -- -- -- -- -- -- -- --
2017-11-15 15:00:00 -- -- -- -- -- -- -- -- --
2017-11-15 14:00:00 -- -- -- -- -- -- -- -- --
2017-11-15 13:00:00 -- -- -- -- -- -- -- -- --
2017-11-15 12:00:00 -- -- -- -- -- -- -- -- --
2017-11-15 11:00:00 -- -- -- -- -- -- -- -- --
2017-11-15 10:00:00 -- -- -- -- -- -- -- -- --
2017-11-15 09:00:00 -- -- -- -- -- -- -- -- --
2017-11-15 08:00:00 -- -- -- -- -- -- -- -- --
2017-11-15 07:00:00 -- -- -- -- -- -- -- -- --
2017-11-15 06:00:00 -- -- -- -- -- -- -- -- --
2017-11-15 05:00:00 -- -- -- -- -- -- -- -- --
2017-11-15 04:00:00 -- -- -- -- -- -- -- -- --
2017-11-15 03:00:00 -- -- -- -- -- -- -- -- --
2017-11-15 02:00:00 -- -- -- -- -- -- -- -- --
2017-11-15 01:00:00 -- -- -- -- -- -- -- -- --
2017-11-15 00:00:00 -- -- -- -- -- -- -- -- --